Time;durP1;ratioP1;P1;durP2;ratioP2;P2;SDS_P1;SDS_P2;PMS_P1;PMS_P2;Temp;Humidity;BMP_temperature;BMP_pressure;BME280_temperature;BME280_humidity;BME280_pressure;Samples;Min_cycle;Max_cycle;Signal;HPM_P1;HPM_P2
2021/10/17 00:01:15;;;;;;;;;60.50;50.00;;;;;13.64;65.24;101262.22;4934332;29;12402;-71
2021/10/17 00:04:10;;;;;;;;;55.25;47.25;;;;;13.68;65.26;101265.16;4934027;29;11539;-71
2021/10/17 00:07:09;;;;;;;;;59.75;49.00;;;;;13.52;65.34;101254.63;4934138;29;11556;-71
2021/10/17 00:10:08;;;;;;;;;54.25;44.50;;;;;13.55;65.45;101258.69;4937834;29;11682;-72
2021/10/17 00:13:06;;;;;;;;;46.00;40.75;;;;;13.48;65.49;101264.78;4937844;29;11553;-72
2021/10/17 00:16:02;;;;;;;;;50.25;41.50;;;;;13.43;65.84;101264.19;4931147;29;11419;-72
2021/10/17 00:18:58;;;;;;;;;48.75;42.00;;;;;13.52;65.63;101260.19;4925001;29;11266;-72
2021/10/17 00:21:53;;;;;;;;;49.00;41.00;;;;;13.46;65.80;101264.31;4930197;29;11582;-71
2021/10/17 00:24:49;;;;;;;;;41.75;35.75;;;;;13.46;65.96;101264.31;4937504;29;11523;-72
2021/10/17 00:27:45;;;;;;;;;42.50;38.75;;;;;13.45;65.79;101261.88;4924559;28;11561;-72
2021/10/17 00:30:41;;;;;;;;;45.75;38.75;;;;;13.29;66.12;101256.88;4937886;29;11667;-71
2021/10/17 00:33:36;;;;;;;;;47.00;40.00;;;;;13.29;66.27;101256.06;4937267;29;11544;-71
2021/10/17 00:36:33;;;;;;;;;49.75;40.75;;;;;13.12;66.82;101261.69;4924821;29;11923;-71
2021/10/17 00:39:29;;;;;;;;;50.00;42.00;;;;;13.07;67.04;101260.72;4937649;29;11480;-71
2021/10/17 00:42:24;;;;;;;;;41.50;38.00;;;;;13.12;66.76;101267.25;4937176;29;11326;-73
2021/10/17 00:45:26;;;;;;;;;47.25;41.00;;;;;13.12;66.99;101262.50;4937306;29;11368;-71
2021/10/17 00:48:22;;;;;;;;;41.25;37.75;;;;;13.12;66.83;101264.47;4936913;29;11258;-71
2021/10/17 00:51:18;;;;;;;;;40.50;38.00;;;;;13.13;66.86;101260.56;4924665;29;11666;-71
2021/10/17 00:54:15;;;;;;;;;48.00;39.75;;;;;13.25;66.44;101263.44;4936850;29;11690;-72
2021/10/17 00:57:12;;;;;;;;;42.00;38.25;;;;;13.18;66.24;101265.91;4936880;29;11454;-72
2021/10/17 01:00:08;;;;;;;;;46.50;39.25;;;;;13.19;66.64;101262.81;4936808;29;11231;-72
2021/10/17 01:03:04;;;;;;;;;38.00;36.00;;;;;13.26;66.39;101259.50;4936747;29;11346;-72
2021/10/17 01:06:00;;;;;;;;;42.25;39.25;;;;;13.20;66.22;101266.44;4936885;29;11374;-72
2021/10/17 01:08:56;;;;;;;;;46.00;38.00;;;;;13.24;66.11;101262.63;4929423;29;11595;-71
2021/10/17 01:11:52;;;;;;;;;41.00;36.25;;;;;13.23;66.11;101263.78;4936657;29;11413;-71
2021/10/17 01:14:47;;;;;;;;;43.25;39.25;;;;;13.31;65.89;101257.34;4936561;29;11222;-71
2021/10/17 01:17:43;;;;;;;;;41.50;37.00;;;;;13.08;66.11;101256.78;4936398;29;11249;-73
2021/10/17 01:20:38;;;;;;;;;39.50;37.75;;;;;13.15;66.02;101259.06;4935539;29;11247;-71
2021/10/17 01:23:34;;;;;;;;;51.75;41.25;;;;;13.06;66.33;101261.88;4923654;29;11605;-71
2021/10/17 01:26:30;;;;;;;;;46.75;40.00;;;;;13.01;66.59;101258.47;4936306;29;11741;-72
2021/10/17 01:29:25;;;;;;;;;44.50;38.25;;;;;13.04;66.32;101260.59;4936327;29;11568;-71
2021/10/17 01:32:21;;;;;;;;;53.50;45.50;;;;;12.85;66.77;101262.94;4935975;29;11543;-71
2021/10/17 01:35:17;;;;;;;;;51.50;42.75;;;;;12.92;66.64;101261.28;4936145;29;11515;-72
2021/10/17 01:38:12;;;;;;;;;58.25;47.25;;;;;12.92;66.42;101264.06;4936059;29;11681;-72
2021/10/17 01:41:08;;;;;;;;;57.75;47.25;;;;;13.05;66.15;101253.88;4936236;29;11668;-72
2021/10/17 01:44:09;;;;;;;;;51.75;42.00;;;;;12.99;66.16;101250.47;4929892;29;12405;-71
2021/10/17 01:47:06;;;;;;;;;55.75;46.50;;;;;13.07;66.01;101254.34;4929560;29;11530;-72
2021/10/17 01:50:04;;;;;;;;;46.25;40.50;;;;;13.13;65.67;101258.59;4923547;29;11535;-72
2021/10/17 01:52:59;;;;;;;;;52.75;43.00;;;;;12.99;65.97;101261.59;4935770;29;11522;-71
2021/10/17 01:56:00;;;;;;;;;51.25;43.25;;;;;13.01;66.07;101261.25;4923196;29;12350;-72
2021/10/17 01:58:55;;;;;;;;;46.50;40.50;;;;;13.02;65.93;101265.63;4934839;29;11524;-72
2021/10/17 02:01:51;;;;;;;;;46.00;40.50;;;;;13.06;65.92;101264.66;4935711;29;11741;-71
2021/10/17 02:04:48;;;;;;;;;45.50;40.50;;;;;13.04;65.91;101266.16;4935513;29;11543;-71
2021/10/17 02:07:44;;;;;;;;;39.25;35.50;;;;;13.06;65.88;101261.06;4935471;29;11292;-71
2021/10/17 02:10:39;;;;;;;;;33.25;33.25;;;;;13.11;65.87;101265.59;4935984;29;11218;-71
2021/10/17 02:13:35;;;;;;;;;44.00;38.00;;;;;12.85;66.48;101257.38;4935691;29;11300;-71
2021/10/17 02:16:30;;;;;;;;;34.50;32.00;;;;;13.01;66.19;101264.00;4936477;29;11159;-71
2021/10/17 02:19:26;;;;;;;;;42.50;35.25;;;;;13.03;65.99;101258.94;4935562;29;11210;-71
2021/10/17 02:22:22;;;;;;;;;34.50;33.50;;;;;13.02;66.11;101263.69;4935281;29;11198;-71
2021/10/17 02:25:17;;;;;;;;;38.00;36.00;;;;;12.95;66.07;101262.56;4934376;29;11090;-71
2021/10/17 02:28:13;;;;;;;;;36.50;35.25;;;;;12.95;66.11;101268.13;4935127;29;11307;-71
2021/10/17 02:31:09;;;;;;;;;37.50;35.50;;;;;13.13;65.62;101268.88;4934825;29;11121;-71
2021/10/17 02:34:04;;;;;;;;;33.75;33.50;;;;;12.95;65.82;101262.56;4916878;29;11198;-71
2021/10/17 02:37:00;;;;;;;;;41.75;37.50;;;;;13.04;65.71;101272.50;4915999;29;11344;-71
2021/10/17 02:39:57;;;;;;;;;47.50;40.00;;;;;13.06;65.57;101280.50;4903663;29;11546;-71
2021/10/17 02:42:52;;;;;;;;;47.50;41.75;;;;;12.99;65.64;101275.47;4916249;29;12407;-71
2021/10/17 02:45:48;;;;;;;;;38.25;36.25;;;;;13.03;65.81;101270.03;4916142;29;11564;-71
2021/10/17 02:48:43;;;;;;;;;49.25;41.50;;;;;12.91;66.18;101281.88;4916125;29;12316;-71
2021/10/17 02:51:39;;;;;;;;;47.00;40.50;;;;;12.95;65.75;101276.44;4915940;29;11551;-71
2021/10/17 02:54:35;;;;;;;;;43.25;38.00;;;;;12.97;65.76;101275.00;4915938;29;11582;-71
2021/10/17 02:57:30;;;;;;;;;45.75;40.50;;;;;12.95;65.67;101268.94;4917195;29;11653;-71
2021/10/17 03:00:26;;;;;;;;;47.00;41.50;;;;;12.98;65.51;101270.25;4917402;29;11587;-71
2021/10/17 03:03:21;;;;;;;;;44.50;39.00;;;;;13.01;65.50;101266.78;4931381;29;11707;-71
2021/10/17 03:06:17;;;;;;;;;42.50;37.75;;;;;12.79;66.12;101263.13;4934640;29;11537;-71
2021/10/17 03:09:12;;;;;;;;;26.75;23.25;;;;;12.90;66.16;101271.91;4934815;29;11560;-71
2021/10/17 03:12:08;;;;;;;;;47.25;39.50;;;;;13.00;66.02;101265.16;4935001;29;11520;-71
2021/10/17 03:15:06;;;;;;;;;46.75;41.00;;;;;12.97;66.36;101257.50;4935042;29;12446;-71
2021/10/17 03:18:02;;;;;;;;;44.00;39.75;;;;;12.97;66.53;101265.84;4934463;29;11547;-71
2021/10/17 03:20:58;;;;;;;;;46.75;40.00;;;;;12.82;66.34;101267.22;4934650;29;11548;-71
2021/10/17 03:23:54;;;;;;;;;44.25;39.75;;;;;12.93;66.04;101262.91;4921737;29;11607;-71
2021/10/17 03:26:49;;;;;;;;;8.75;6.50;;;;;12.88;65.82;101267.81;4934244;29;11548;-71
2021/10/17 03:29:45;;;;;;;;;43.75;38.50;;;;;12.94;65.67;101267.31;4934623;29;11513;-72
2021/10/17 03:32:41;;;;;;;;;48.50;38.75;;;;;12.91;65.68;101268.00;4934283;29;11616;-71
2021/10/17 03:35:36;;;;;;;;;45.50;39.75;;;;;12.94;65.58;101263.72;4934595;29;11589;-71
2021/10/17 03:38:32;;;;;;;;;40.50;36.75;;;;;13.06;65.10;101263.84;4934439;29;11545;-72
2021/10/17 03:41:27;;;;;;;;;36.50;35.25;;;;;13.02;65.25;101260.91;4934554;29;11547;-73
2021/10/17 03:44:23;;;;;;;;;38.50;37.00;;;;;12.94;65.10;101267.31;4937539;29;11539;-72
2021/10/17 03:47:19;;;;;;;;;33.75;32.75;;;;;12.83;64.93;101265.25;4925056;29;11252;-71
2021/10/17 03:50:14;;;;;;;;;31.25;30.50;;;;;13.00;64.71;101259.63;4938110;29;11612;-71
2021/10/17 03:53:10;;;;;;;;;32.25;32.25;;;;;12.85;64.88;101269.31;4925706;29;11180;-71
2021/10/17 03:56:06;;;;;;;;;35.25;33.00;;;;;12.90;64.62;101268.31;4938297;29;11325;-71
2021/10/17 03:59:02;;;;;;;;;26.25;26.25;;;;;12.92;64.85;101266.03;4937926;29;11187;-71
2021/10/17 04:01:57;;;;;;;;;32.50;29.75;;;;;12.98;64.75;101262.72;4925039;29;11203;-71
2021/10/17 04:04:53;;;;;;;;;29.00;29.00;;;;;12.91;64.67;101256.88;4937850;29;11205;-71
2021/10/17 04:07:48;;;;;;;;;32.50;32.50;;;;;12.89;64.73;101267.50;4937754;29;11176;-71
2021/10/17 04:10:44;;;;;;;;;32.50;32.50;;;;;12.82;64.45;101260.84;4937651;29;11205;-71
2021/10/17 04:13:39;;;;;;;;;30.50;28.75;;;;;12.95;64.17;101270.91;4937915;29;11178;-71
2021/10/17 04:16:35;;;;;;;;;26.75;26.75;;;;;12.87;63.90;101266.19;4937013;29;11324;-71
2021/10/17 04:19:30;;;;;;;;;32.00;30.00;;;;;12.94;63.81;101261.75;4925040;29;11014;-71
2021/10/17 04:22:26;;;;;;;;;25.50;25.25;;;;;12.91;63.70;101267.16;4937613;29;11012;-71
2021/10/17 04:25:22;;;;;;;;;21.00;21.00;;;;;12.82;63.90;101263.63;4936631;29;10905;-71
2021/10/17 04:28:18;;;;;;;;;34.00;31.00;;;;;12.92;63.61;101269.63;4937390;29;10856;-71
2021/10/17 04:31:14;;;;;;;;;23.25;22.75;;;;;12.96;63.86;101280.88;4937564;29;10956;-71
2021/10/17 04:34:09;;;;;;;;;29.75;29.75;;;;;13.00;63.65;101274.31;4923839;29;10987;-70
2021/10/17 04:37:07;;;;;;;;;28.75;28.25;;;;;12.91;63.44;101278.28;4935770;29;11186;-70
2021/10/17 04:40:06;;;;;;;;;30.00;28.00;;;;;12.84;63.86;101276.00;4939078;29;10908;-69
2021/10/17 04:43:03;;;;;;;;;34.50;33.75;;;;;12.94;63.57;101280.38;4925846;29;11318;-70
2021/10/17 04:46:00;;;;;;;;;37.75;36.00;;;;;12.95;63.54;101274.47;4925301;29;11374;-70
2021/10/17 04:48:55;;;;;;;;;35.75;33.75;;;;;12.87;63.83;101278.09;4917965;29;12388;-70
2021/10/17 04:51:53;;;;;;;;;37.75;36.25;;;;;12.88;63.58;101284.47;4918884;29;11545;-69
2021/10/17 04:54:48;;;;;;;;;39.50;37.00;;;;;12.83;63.84;101281.91;4917633;29;11563;-70
2021/10/17 04:57:44;;;;;;;;;32.75;31.50;;;;;12.82;64.16;101286.63;4906150;29;11277;-70
2021/10/17 05:00:39;;;;;;;;;43.25;38.00;;;;;12.83;63.55;101288.25;4935356;29;11354;-70
2021/10/17 05:03:36;;;;;;;;;33.25;32.75;;;;;12.76;63.92;101282.41;4936954;29;11528;-69
2021/10/17 05:06:31;;;;;;;;;35.50;32.75;;;;;12.92;63.61;101289.03;4936216;29;11541;-69
2021/10/17 05:09:27;;;;;;;;;32.75;31.25;;;;;12.86;63.45;101287.59;4923609;29;11836;-70
2021/10/17 05:12:22;;;;;;;;;34.25;34.25;;;;;12.93;63.12;101281.53;4918408;29;11193;-71
2021/10/17 05:15:18;;;;;;;;;38.50;35.50;;;;;12.93;63.40;101282.34;4929230;29;11775;-70
2021/10/17 05:18:14;;;;;;;;;32.50;32.50;;;;;12.88;63.36;101299.19;4935165;29;11314;-70
2021/10/17 05:21:10;;;;;;;;;32.50;32.50;;;;;12.81;63.49;101290.56;4926366;29;11003;-70
2021/10/17 05:24:05;;;;;;;;;36.25;34.25;;;;;12.82;63.49;101302.47;4936167;29;11197;-70
2021/10/17 05:27:01;;;;;;;;;34.00;33.75;;;;;12.88;63.33;101307.53;4936463;29;11258;-70
2021/10/17 05:30:11;;;;;;;;;26.25;26.25;;;;;12.98;63.46;101306.34;4935983;29;11252;-70
2021/10/17 05:33:07;;;;;;;;;32.75;32.25;;;;;13.04;63.46;101308.59;4925540;29;11103;-71
2021/10/17 05:36:04;;;;;;;;;25.75;25.25;;;;;13.07;63.02;101309.91;4917090;29;11896;-72
2021/10/17 05:38:59;;;;;;;;;28.25;25.75;;;;;13.07;62.89;101313.47;4905572;29;10963;-71
2021/10/17 05:41:55;;;;;;;;;30.25;29.75;;;;;13.22;62.57;101311.34;4936475;29;10887;-71
2021/10/17 05:44:50;;;;;;;;;29.75;29.75;;;;;13.14;62.78;101310.19;4929457;29;10956;-70
2021/10/17 05:47:46;;;;;;;;;31.00;30.50;;;;;13.16;62.88;101313.44;4934596;29;10943;-70
2021/10/17 05:50:41;;;;;;;;;28.00;27.50;;;;;13.34;62.38;101317.81;4935895;29;10946;-71
2021/10/17 05:53:37;;;;;;;;;29.00;28.50;;;;;13.32;62.13;101320.09;4921498;29;10768;-71
2021/10/17 05:56:33;;;;;;;;;35.00;33.75;;;;;13.55;62.19;101323.41;4935162;29;10940;-71
2021/10/17 05:59:29;;;;;;;;;34.25;34.00;;;;;13.76;61.30;101326.25;4935039;29;10995;-71
2021/10/17 06:02:24;;;;;;;;;32.75;31.00;;;;;13.91;60.77;101330.41;4935724;29;10961;-71
2021/10/17 06:05:20;;;;;;;;;32.75;32.50;;;;;14.00;60.64;101331.13;4934130;29;10778;-72
2021/10/17 06:08:18;;;;;;;;;38.00;34.75;;;;;14.13;60.54;101337.59;4935452;29;10709;-72
2021/10/17 06:11:13;;;;;;;;;37.25;35.75;;;;;14.06;60.23;101334.53;4907960;29;11055;-71
2021/10/17 06:14:09;;;;;;;;;32.50;32.50;;;;;14.28;60.00;101333.38;4927986;29;10797;-72
2021/10/17 06:17:05;;;;;;;;;26.25;23.25;;;;;14.34;60.30;101340.38;4922174;29;10730;-72
2021/10/17 06:20:02;;;;;;;;;26.75;26.75;;;;;14.34;59.14;101343.16;4935024;29;10552;-71
2021/10/17 06:22:57;;;;;;;;;29.00;29.00;;;;;14.23;59.52;101344.72;4935393;29;10474;-72
2021/10/17 06:25:53;;;;;;;;;26.50;26.00;;;;;14.07;59.64;101342.53;4934985;29;10466;-72
2021/10/17 06:28:48;;;;;;;;;18.50;18.50;;;;;14.18;59.29;101341.00;4935517;29;10375;-72
2021/10/17 06:31:44;;;;;;;;;27.25;25.75;;;;;14.10;59.71;101341.03;4934287;29;10332;-71
2021/10/17 06:34:39;;;;;;;;;28.00;28.00;;;;;14.21;59.84;101338.69;4935151;29;10388;-71
2021/10/17 06:37:35;;;;;;;;;24.75;23.75;;;;;14.13;59.71;101337.59;4933725;29;10560;-70
2021/10/17 06:40:31;;;;;;;;;27.50;25.75;;;;;14.04;60.01;101336.84;4905097;29;10370;-71
2021/10/17 06:43:26;;;;;;;;;34.00;32.50;;;;;14.13;59.90;101345.94;4917817;29;11423;-71
2021/10/17 06:46:22;;;;;;;;;27.75;27.75;;;;;14.34;59.48;101341.19;4933961;29;10662;-71
2021/10/17 06:49:18;;;;;;;;;27.75;27.75;;;;;14.21;59.69;101342.28;4917254;28;10623;-71
2021/10/17 06:52:14;;;;;;;;;36.25;32.50;;;;;14.29;59.42;101340.56;4934857;29;10459;-71
2021/10/17 06:55:09;;;;;;;;;22.50;22.50;;;;;14.35;58.99;101340.03;4903338;29;10559;-71
2021/10/17 06:58:05;;;;;;;;;33.25;30.50;;;;;14.40;58.78;101339.81;4923870;29;11460;-71
2021/10/17 07:01:00;;;;;;;;;42.75;37.50;;;;;14.51;58.28;101334.69;4934361;29;10389;-74
2021/10/17 07:03:56;;;;;;;;;38.75;36.75;;;;;14.67;58.32;101340.41;4934882;29;10965;-76
2021/10/17 07:06:52;;;;;;;;;40.25;35.50;;;;;14.84;57.97;101331.88;4929917;29;10768;-71
2021/10/17 07:09:47;;;;;;;;;34.50;33.50;;;;;15.02;57.32;101340.84;4934271;29;10522;-71
2021/10/17 07:12:43;;;;;;;;;37.00;35.25;;;;;15.12;56.78;101337.63;4924733;29;10657;-71
2021/10/17 07:15:38;;;;;;;;;36.25;31.25;;;;;15.28;56.46;101335.78;4932306;29;10316;-71
2021/10/17 07:18:34;;;;;;;;;29.00;25.50;;;;;15.44;55.55;101340.69;4937868;29;10381;-71
2021/10/17 07:21:29;;;;;;;;;34.25;32.50;;;;;15.29;55.12;101347.75;4939289;29;10583;-71
2021/10/17 07:24:25;;;;;;;;;27.25;26.50;;;;;15.50;54.58;101340.09;4935760;29;10240;-71
2021/10/17 07:27:20;;;;;;;;;25.25;25.25;;;;;15.71;54.45;101353.13;4920875;28;9982;-71
2021/10/17 07:30:16;;;;;;;;;29.50;28.75;;;;;15.93;56.63;101344.25;4938300;29;9953;-72
2021/10/17 07:33:11;;;;;;;;;25.25;24.75;;;;;16.17;55.59;101348.97;4938417;29;9894;-72
2021/10/17 07:36:07;;;;;;;;;22.25;22.25;;;;;16.63;61.67;101350.31;4937963;29;9580;-72
2021/10/17 07:39:04;;;;;;;;;24.33;24.00;;;;;16.34;53.95;101359.88;4938014;29;10383;-67
2021/10/17 07:42:00;;;;;;;;;22.00;21.75;;;;;17.34;68.67;101348.66;4938301;29;9464;-70
2021/10/17 07:44:56;;;;;;;;;22.33;21.67;;;;;17.80;67.73;101357.41;4925806;29;10319;-70
2021/10/17 07:47:51;;;;;;;;;23.67;23.00;;;;;17.71;52.46;101356.75;4938172;29;9092;-70
2021/10/17 07:50:47;;;;;;;;;16.00;16.00;;;;;17.96;55.68;101360.97;4938671;29;9073;-70
2021/10/17 07:53:44;;;;;;;;;21.67;21.67;;;;;17.49;53.51;101358.22;4938083;29;9190;-70
2021/10/17 07:56:40;;;;;;;;;19.67;19.67;;;;;17.76;53.35;101359.28;4938140;29;9250;-70
2021/10/17 07:59:35;;;;;;;;;24.67;23.67;;;;;18.07;60.12;101358.41;4938082;29;9187;-70
2021/10/17 08:02:31;;;;;;;;;26.33;26.33;;;;;17.95;49.71;101361.34;4938098;29;9121;-71
2021/10/17 08:05:26;;;;;;;;;27.33;26.67;;;;;17.73;52.11;101354.44;4937557;29;9852;-70
2021/10/17 08:08:22;;;;;;;;;25.67;25.67;;;;;18.01;54.06;101357.06;4937832;29;9080;-70
2021/10/17 08:11:18;;;;;;;;;22.00;21.75;;;;;18.13;50.04;101364.53;4938106;29;9078;-70
2021/10/17 08:14:13;;;;;;;;;23.25;22.50;;;;;17.96;48.85;101357.38;4937717;29;8853;-70
2021/10/17 08:17:09;;;;;;;;;20.25;20.25;;;;;18.11;52.02;101366.91;4925036;29;8888;-70
2021/10/17 08:20:07;;;;;;;;;18.75;18.75;;;;;17.79;51.30;101352.97;4938067;29;8876;-70
2021/10/17 08:23:02;;;;;;;;;17.00;17.00;;;;;17.58;50.61;101349.63;4937985;29;8849;-70
2021/10/17 08:25:58;;;;;;;;;17.25;17.25;;;;;18.00;50.02;101353.44;4937581;29;9641;-70
2021/10/17 08:28:53;;;;;;;;;18.25;18.25;;;;;18.12;57.09;101348.91;4937035;29;8872;-70
2021/10/17 08:31:49;;;;;;;;;19.25;18.25;;;;;18.21;52.13;101346.72;4937459;29;8856;-70
2021/10/17 08:34:44;;;;;;;;;16.00;16.00;;;;;18.50;53.37;101351.72;4937430;29;8888;-70
2021/10/17 08:37:40;;;;;;;;;20.50;19.75;;;;;18.55;51.90;101348.63;4937530;29;8845;-70
2021/10/17 08:40:36;;;;;;;;;17.75;17.75;;;;;18.59;47.11;101348.72;4937565;29;8857;-70
2021/10/17 08:43:32;;;;;;;;;15.50;15.50;;;;;18.69;47.80;101347.31;4937110;29;8952;-70
2021/10/17 08:46:28;;;;;;;;;15.25;15.25;;;;;18.24;46.50;101343.97;4937070;29;8845;-70
2021/10/17 08:49:25;;;;;;;;;14.00;13.75;;;;;18.69;52.73;101345.31;4937170;29;8861;-70
2021/10/17 08:52:20;;;;;;;;;14.75;14.75;;;;;18.97;46.49;101350.69;4937076;29;9625;-71
2021/10/17 08:55:16;;;;;;;;;15.50;15.50;;;;;19.28;49.31;101343.22;4937163;29;8853;-71
2021/10/17 08:58:12;;;;;;;;;13.50;13.50;;;;;19.21;46.52;101351.50;4936965;29;8857;-71
2021/10/17 09:01:13;;;;;;;;;14.00;14.00;;;;;19.10;45.94;101354.13;4936026;29;8852;-70
2021/10/17 09:04:13;;;;;;;;;12.50;12.50;;;;;19.03;46.36;101354.00;4937010;29;8936;-70
2021/10/17 09:07:17;;;;;;;;;11.75;11.75;;;;;19.19;45.81;101342.66;4936758;29;8849;-69
2021/10/17 09:10:15;;;;;;;;;16.00;16.00;;;;;19.39;45.53;101347.00;4936823;29;8857;-70
2021/10/17 09:13:14;;;;;;;;;20.00;20.00;;;;;19.49;50.62;101335.16;4936775;29;8841;-70
2021/10/17 09:16:23;;;;;;;;;20.75;19.50;;;;;19.64;51.16;101342.66;4936593;29;8873;-70
2021/10/17 09:19:30;;;;;;;;;23.50;23.50;;;;;19.40;49.69;101343.03;4935764;29;8849;-71
2021/10/17 09:22:30;;;;;;;;;23.75;23.75;;;;;19.27;47.23;101331.19;4936463;29;8861;-70
2021/10/17 09:25:36;;;;;;;;;23.50;23.50;;;;;19.04;46.82;101334.00;4936435;29;8837;-71
2021/10/17 09:28:32;;;;;;;;;24.50;23.75;;;;;18.94;46.43;101328.16;4936398;29;8865;-70
2021/10/17 09:31:27;;;;;;;;;25.25;23.00;;;;;18.71;46.91;101331.78;4924316;29;8833;-70
2021/10/17 09:34:27;;;;;;;;;22.50;22.50;;;;;18.65;46.61;101324.81;4936587;29;8881;-71
2021/10/17 09:37:31;;;;;;;;;22.50;21.50;;;;;18.92;50.50;101328.56;4932419;29;8888;-71
2021/10/17 09:40:28;;;;;;;;;22.50;22.50;;;;;18.79;46.88;101329.94;4935380;29;8849;-70
2021/10/17 09:43:32;;;;;;;;;21.25;21.25;;;;;18.84;48.82;101321.19;4936157;29;9631;-71
2021/10/17 09:46:28;;;;;;;;;14.25;13.75;;;;;18.88;48.78;101324.88;4936176;29;8957;-70
2021/10/17 09:49:24;;;;;;;;;28.00;26.25;;;;;18.66;45.68;101320.06;4936239;29;8896;-71
2021/10/17 09:52:24;;;;;;;;;22.75;22.00;;;;;18.94;50.26;101315.00;4935945;29;8883;-71
2021/10/17 09:55:20;;;;;;;;;15.75;15.75;;;;;18.99;51.68;101306.25;4936298;29;8905;-71
2021/10/17 09:58:15;;;;;;;;;19.00;19.00;;;;;18.85;49.80;101303.19;4936119;29;8849;-71
2021/10/17 10:01:11;;;;;;;;;18.75;18.50;;;;;18.77;46.44;101310.66;4930938;29;8868;-70
2021/10/17 10:04:11;;;;;;;;;23.50;22.00;;;;;19.06;46.94;101302.78;4936058;29;8867;-71
2021/10/17 10:07:14;;;;;;;;;21.25;20.00;;;;;19.02;46.54;101307.53;4935795;29;8845;-71
2021/10/17 10:10:10;;;;;;;;;23.75;23.75;;;;;18.87;46.57;101295.25;4935813;29;8853;-71
2021/10/17 10:13:07;;;;;;;;;26.00;26.00;;;;;18.89;46.30;101290.06;4929630;29;8842;-71
2021/10/17 10:16:04;;;;;;;;;34.67;31.67;;;;;18.59;46.30;101298.28;4935533;29;8868;-70
2021/10/17 10:19:02;;;;;;;;;27.50;26.75;;;;;18.84;49.41;101285.56;4935767;29;9235;-71
2021/10/17 10:21:58;;;;;;;;;30.67;29.67;;;;;19.04;50.18;101288.31;4935833;29;9608;-71
2021/10/17 10:24:56;;;;;;;;;32.50;31.00;;;;;19.00;46.97;101288.25;4935554;29;8961;-71
2021/10/17 10:27:53;;;;;;;;;42.00;36.00;;;;;18.96;47.03;101284.59;4934852;29;8871;-70
2021/10/17 10:30:48;;;;;;;;;39.00;34.67;;;;;18.70;47.08;101281.69;4916307;29;9275;-70
2021/10/17 10:33:44;;;;;;;;;42.00;36.33;;;;;18.76;46.71;101285.81;4917312;29;9274;-70
2021/10/17 10:36:44;;;;;;;;;34.00;31.25;;;;;18.69;45.86;101280.09;4917456;29;9282;-70
2021/10/17 10:40:00;;;;;;;;;37.33;33.00;;;;;19.07;46.82;101273.56;4926508;29;8853;-70
2021/10/17 10:43:13;;;;;;;;;28.50;27.50;;;;;19.17;46.47;101268.16;4927482;29;9082;-70
2021/10/17 10:46:08;;;;;;;;;30.00;27.50;;;;;18.99;47.26;101264.22;4928064;29;8869;-70
2021/10/17 10:49:04;;;;;;;;;15.75;15.75;;;;;19.14;44.94;101263.25;4935001;29;8843;-70
2021/10/17 10:52:00;;;;;;;;;26.50;25.25;;;;;19.43;48.06;101266.53;4934347;29;8841;-70
2021/10/17 10:54:56;;;;;;;;;20.50;20.50;;;;;19.50;45.02;101268.63;4934498;29;8864;-69
2021/10/17 10:57:52;;;;;;;;;30.25;30.25;;;;;19.27;44.99;101268.69;4928044;29;8861;-69
2021/10/17 11:00:47;;;;;;;;;38.67;34.33;;;;;19.44;45.03;101265.34;4927234;29;8945;-69
2021/10/17 11:03:44;;;;;;;;;51.25;42.50;;;;;19.48;44.92;101268.22;4931633;29;9105;-70
2021/10/17 11:06:40;;;;;;;;;51.75;43.50;;;;;19.63;44.33;101256.03;4933616;29;9493;-69
2021/10/17 11:09:35;;;;;;;;;58.75;46.50;;;;;19.58;44.57;101265.59;4934237;29;9653;-69
2021/10/17 11:13:02;;;;;;;;;64.00;48.25;;;;;19.40;44.48;101264.50;4934305;29;9736;-68
2021/10/17 11:15:59;;;;;;;;;55.75;44.25;;;;;19.51;43.77;101261.84;4915334;29;10036;-68
2021/10/17 11:18:58;;;;;;;;;58.75;46.25;;;;;19.48;43.64;101255.00;4904272;29;9606;-67
2021/10/17 11:22:03;;;;;;;;;57.25;45.75;;;;;19.70;43.81;101256.13;4915360;29;9900;-68
2021/10/17 11:24:59;;;;;;;;;7.67;7.33;;;;;19.59;42.50;101250.38;4916298;29;10072;-68
2021/10/17 11:27:56;;;;;;;;;36.00;33.25;;;;;19.42;42.53;101253.69;4910706;29;9052;-68
2021/10/17 11:31:14;;;;;;;;;33.00;27.00;;;;;19.53;42.56;101251.03;4915460;29;8837;-68
2021/10/17 11:34:10;;;;;;;;;51.33;41.00;;;;;19.53;42.27;101239.81;4915198;29;8951;-68
2021/10/17 11:37:21;;;;;;;;;56.67;43.00;;;;;19.78;42.22;101241.00;4915228;29;9260;-69
2021/10/17 11:40:17;;;;;;;;;24.00;24.00;;;;;19.45;41.58;101245.31;4902629;29;9077;-68
2021/10/17 11:43:14;;;;;;;;;30.33;28.33;;;;;19.63;41.50;101239.19;4902335;29;8975;-68
2021/10/17 11:46:14;;;;;;;;;23.50;23.25;;;;;19.39;41.84;101237.59;4915121;29;8849;-68
2021/10/17 11:49:19;;;;;;;;;23.75;22.75;;;;;19.28;41.68;101243.06;4915344;29;8849;-68
2021/10/17 11:52:16;;;;;;;;;17.25;17.25;;;;;19.29;42.34;101235.47;4915107;29;8892;-68
2021/10/17 11:55:11;;;;;;;;;18.50;18.50;;;;;19.24;41.41;101230.97;4915116;29;8861;-69
2021/10/17 11:58:16;;;;;;;;;22.75;22.75;;;;;19.32;41.88;101238.34;4914882;29;8939;-68
2021/10/17 12:01:14;;;;;;;;;20.25;19.00;;;;;19.01;40.71;101236.59;4915187;29;8883;-68
2021/10/17 12:04:10;;;;;;;;;34.25;28.25;;;;;19.10;41.02;101241.97;4914213;29;8864;-68
2021/10/17 12:07:06;;;;;;;;;32.75;31.25;;;;;19.09;40.99;101245.94;4899419;29;8866;-68
2021/10/17 12:10:03;;;;;;;;;25.75;25.25;;;;;19.07;41.21;101246.31;4909363;29;8967;-67
2021/10/17 12:13:01;;;;;;;;;27.00;26.00;;;;;19.24;41.08;101241.38;4907201;29;8917;-68
2021/10/17 12:16:11;;;;;;;;;30.75;30.25;;;;;19.13;40.98;101239.22;4901255;29;8853;-68
2021/10/17 12:19:07;;;;;;;;;26.50;26.50;;;;;19.29;41.39;101241.88;4919229;29;8849;-68
2021/10/17 12:22:03;;;;;;;;;23.75;23.50;;;;;19.38;40.57;101238.78;4918275;29;9658;-68
2021/10/17 12:24:59;;;;;;;;;24.25;24.25;;;;;19.58;40.90;101229.13;4915351;29;9601;-68
2021/10/17 12:27:56;;;;;;;;;21.50;19.00;;;;;19.39;39.95;101248.81;4917194;29;8933;-69
2021/10/17 12:30:54;;;;;;;;;27.50;26.50;;;;;19.32;40.47;101248.72;4918488;29;8867;-68
2021/10/17 12:33:50;;;;;;;;;36.33;29.67;;;;;19.23;40.48;101254.59;4918074;29;8855;-68
2021/10/17 12:36:47;;;;;;;;;40.67;34.33;;;;;19.25;40.85;101252.25;4918797;29;9208;-69
2021/10/17 12:39:43;;;;;;;;;35.00;33.00;;;;;19.34;41.08;101249.16;4917507;29;9127;-69
2021/10/17 12:42:50;;;;;;;;;32.25;30.75;;;;;19.03;41.37;101253.06;4917254;29;8943;-68
2021/10/17 12:45:45;;;;;;;;;31.00;29.00;;;;;18.87;41.83;101250.41;4910688;29;8871;-68
2021/10/17 12:48:43;;;;;;;;;35.00;31.75;;;;;18.69;42.11;101247.28;4918161;29;8950;-68
2021/10/17 12:51:53;;;;;;;;;28.33;26.00;;;;;18.37;42.16;101268.25;4917696;29;8892;-67
2021/10/17 12:54:56;;;;;;;;;22.75;22.75;;;;;18.32;41.73;101263.72;4917299;29;9760;-68
2021/10/17 12:58:15;;;;;;;;;23.33;23.33;;;;;18.27;42.04;101264.88;4917890;29;8898;-68
2021/10/17 13:01:15;;;;;;;;;17.25;17.00;;;;;18.09;42.06;101262.88;4917592;29;8970;-68
2021/10/17 13:04:12;;;;;;;;;17.25;17.25;;;;;17.99;42.06;101265.06;4917517;29;8871;-69
2021/10/17 13:07:09;;;;;;;;;26.33;26.33;;;;;17.81;41.77;101263.09;4917734;29;8843;-68
2021/10/17 13:10:06;;;;;;;;;31.33;29.33;;;;;17.81;41.70;101263.09;4905912;29;9243;-68
2021/10/17 13:13:19;;;;;;;;;32.67;31.67;;;;;17.96;40.93;101271.41;4915257;29;9007;-67
2021/10/17 13:16:28;;;;;;;;;39.67;34.67;;;;;18.00;40.88;101269.50;4911700;29;9468;-68
2021/10/17 13:19:24;;;;;;;;;42.00;37.25;;;;;17.90;40.99;101274.88;4911914;29;9175;-68
2021/10/17 13:22:20;;;;;;;;;48.75;40.75;;;;;17.94;40.34;101270.97;4913954;29;9580;-68
2021/10/17 13:25:17;;;;;;;;;54.75;44.50;;;;;17.67;41.08;101271.94;4900046;29;9806;-69
2021/10/17 13:28:13;;;;;;;;;47.25;37.75;;;;;17.68;40.73;101271.56;4924138;28;9999;-68